West Point, NE

12:07 AM CDT on October 01, 2014 (GMT -0500)
Southwest Hill | Change Station
CLOSE
Current Station
Personal Weather Station
Location: Hooper, NE
Elevation: 1320 ft
Nearby Weather Stations

Elev 1320 ft 41.61 °N, 96.55 °W | Updated 5 seconds ago

Mostly Cloudy
Mostly Cloudy
63.0 °F
Feels Like 63.0 °F
N
0.0
Wind Variable Wind from SSE
Gusts 0.0 mph

Today
High -- | Low -- °F
--% Chance of Precip.
Yesterday
High -- | Low -- °F
Precip. -- in
7:23 AM 7:08 PM
Waxing Crescent, 43% visible
Pressure 29.74 in
Visibility 9.0 miles
Clouds Few 1200 ft
Mostly Cloudy 2700 ft
Overcast 3400 ft
Dew Point 62 °F
Humidity 96%
Rainfall 0.00 in
Snow Depth Not available.
UV 0.0 out of 12
Pollen 3.70 out of 12
Air Quality Not available.
Flu Activity Not available.
METAR KTQE 010454Z AUTO 10004KT 9SM FEW012 BKN027 OVC034 18/17 A2977 RMK AO2 SLP071 T01830172

More Conditions Fewer Conditions

Pressure 29.74 in
Visibility 9.0 miles
Clouds Few 1200 ft
Mostly Cloudy 2700 ft
Overcast 3400 ft
Dew Point 62 °F
Humidity 96%
Rainfall 0.00 in
Snow Depth Not available.
UV 0.0 out of 12
Pollen 3.70 out of 12
Air Quality Not available.
Flu Activity Not available.
METAR KTQE 010454Z AUTO 10004KT 9SM FEW012 BKN027 OVC034 18/17 A2977 RMK AO2 SLP071 T01830172

More Conditions Fewer Conditions

10-Day Weather Forecast

Almanac

Astronomy

Oct. 01, 2014 Rise Set
Actual Time 7:23 AM CDT 7:08 PM CDT
Civil Twilight 6:56 AM CDT 7:36 PM CDT
Nautical Twilight 6:23 AM CDT 8:08 PM CDT
Astronomical Twilight 5:51 AM CDT 8:41 PM CDT
Moon 2:29 PM CDT No Moon Set
Length of Visible Light 12h 40m
Length of Day
11h 44m
Tomorrow will be 2m 46s shorter.
Waxing Crescent, 43% of the Moon is Illuminated
Today
Waxing Crescent
Oct 1
First Quarter
Oct 8
Full
Oct 15
Last Quarter
Oct 23
New

Today's Extremes

State Highs State Lows

Community

WunderPhotos

Upload Photos

1,757,850 photos uploaded!

Nearby

Snow Depth

Station Depth Elevation
No new snow has been reported.

Earthquake Activity

City Distance Mag. Time & Date
No recent earthquake activity has been reported nearby.
Minimum magnitude displayed is 2.5.

Coastal Water Temperatures

Place Temperature
No Stations Reporting

Nearby Weather Stations